sensor_id;sensor_type;location;lat;lon;timestamp;P1;durP1;ratioP1;P2;durP2;ratioP2
29006;SDS011;16104;48.642;9.008;2022-07-23T00:00:13;3.97;;;3.60;;
29006;SDS011;16104;48.642;9.008;2022-07-23T01:01:08;3.60;;;3.10;;
29006;SDS011;16104;48.642;9.008;2022-07-23T01:06:04;4.22;;;3.22;;
29006;SDS011;16104;48.642;9.008;2022-07-23T01:10:59;5.45;;;3.42;;
29006;SDS011;16104;48.642;9.008;2022-07-23T02:01:43;3.60;;;3.30;;
29006;SDS011;16104;48.642;9.008;2022-07-23T02:06:39;4.43;;;3.83;;
29006;SDS011;16104;48.642;9.008;2022-07-23T02:11:34;5.13;;;4.10;;
29006;SDS011;16104;48.642;9.008;2022-07-23T03:02:31;3.88;;;3.55;;
29006;SDS011;16104;48.642;9.008;2022-07-23T03:07:46;7.65;;;4.10;;
29006;SDS011;16104;48.642;9.008;2022-07-23T03:12:42;3.88;;;3.47;;
29006;SDS011;16104;48.642;9.008;2022-07-23T03:17:37;4.00;;;3.60;;
29006;SDS011;16104;48.642;9.008;2022-07-23T03:22:33;5.78;;;4.05;;
29006;SDS011;16104;48.642;9.008;2022-07-23T03:27:29;4.90;;;3.80;;
29006;SDS011;16104;48.642;9.008;2022-07-23T03:32:25;4.40;;;4.00;;
29006;SDS011;16104;48.642;9.008;2022-07-23T03:37:21;4.10;;;3.70;;
29006;SDS011;16104;48.642;9.008;2022-07-23T03:42:16;4.03;;;3.72;;
29006;SDS011;16104;48.642;9.008;2022-07-23T03:47:12;4.90;;;4.25;;
29006;SDS011;16104;48.642;9.008;2022-07-23T03:52:07;4.38;;;3.97;;
29006;SDS011;16104;48.642;9.008;2022-07-23T03:57:03;4.93;;;3.47;;
29006;SDS011;16104;48.642;9.008;2022-07-23T04:01:58;4.00;;;3.70;;
29006;SDS011;16104;48.642;9.008;2022-07-23T04:06:54;4.00;;;3.63;;
29006;SDS011;16104;48.642;9.008;2022-07-23T04:11:49;6.47;;;4.10;;
29006;SDS011;16104;48.642;9.008;2022-07-23T04:16:45;4.88;;;4.38;;
29006;SDS011;16104;48.642;9.008;2022-07-23T04:21:41;4.60;;;4.18;;
29006;SDS011;16104;48.642;9.008;2022-07-23T04:26:36;4.03;;;3.60;;
29006;SDS011;16104;48.642;9.008;2022-07-23T04:31:32;4.50;;;4.10;;
29006;SDS011;16104;48.642;9.008;2022-07-23T04:36:27;4.95;;;4.43;;
29006;SDS011;16104;48.642;9.008;2022-07-23T04:41:23;4.93;;;4.50;;
29006;SDS011;16104;48.642;9.008;2022-07-23T04:46:18;4.72;;;3.97;;
29006;SDS011;16104;48.642;9.008;2022-07-23T04:51:14;5.13;;;4.15;;
29006;SDS011;16104;48.642;9.008;2022-07-23T04:56:10;5.55;;;4.60;;
29006;SDS011;16104;48.642;9.008;2022-07-23T05:01:05;4.80;;;4.40;;
29006;SDS011;16104;48.642;9.008;2022-07-23T05:06:01;5.75;;;4.85;;
29006;SDS011;16104;48.642;9.008;2022-07-23T05:10:57;5.35;;;4.75;;
29006;SDS011;16104;48.642;9.008;2022-07-23T05:15:53;5.53;;;4.68;;
29006;SDS011;16104;48.642;9.008;2022-07-23T05:20:49;4.85;;;4.30;;
29006;SDS011;16104;48.642;9.008;2022-07-23T05:25:44;4.80;;;4.40;;
29006;SDS011;16104;48.642;9.008;2022-07-23T05:30:40;4.85;;;4.45;;
29006;SDS011;16104;48.642;9.008;2022-07-23T05:35:35;5.15;;;4.38;;
29006;SDS011;16104;48.642;9.008;2022-07-23T05:40:31;5.28;;;4.78;;
29006;SDS011;16104;48.642;9.008;2022-07-23T05:45:27;5.70;;;4.68;;
29006;SDS011;16104;48.642;9.008;2022-07-23T05:50:23;5.50;;;4.68;;
29006;SDS011;16104;48.642;9.008;2022-07-23T05:55:19;6.13;;;5.18;;
29006;SDS011;16104;48.642;9.008;2022-07-23T06:00:14;6.43;;;5.60;;
29006;SDS011;16104;48.642;9.008;2022-07-23T06:05:10;6.85;;;5.82;;
29006;SDS011;16104;48.642;9.008;2022-07-23T06:10:05;6.18;;;5.57;;
29006;SDS011;16104;48.642;9.008;2022-07-23T06:15:01;5.28;;;4.78;;
29006;SDS011;16104;48.642;9.008;2022-07-23T06:19:57;5.80;;;5.30;;
29006;SDS011;16104;48.642;9.008;2022-07-23T06:24:53;7.13;;;6.22;;
29006;SDS011;16104;48.642;9.008;2022-07-23T06:29:48;7.10;;;6.40;;
29006;SDS011;16104;48.642;9.008;2022-07-23T06:34:44;6.90;;;5.70;;
29006;SDS011;16104;48.642;9.008;2022-07-23T06:39:39;7.47;;;6.32;;
29006;SDS011;16104;48.642;9.008;2022-07-23T06:44:35;6.13;;;5.53;;
29006;SDS011;16104;48.642;9.008;2022-07-23T06:49:31;6.72;;;6.13;;
29006;SDS011;16104;48.642;9.008;2022-07-23T06:54:26;7.78;;;6.00;;
29006;SDS011;16104;48.642;9.008;2022-07-23T06:59:22;10.52;;;6.00;;
29006;SDS011;16104;48.642;9.008;2022-07-23T07:04:17;6.63;;;6.10;;
29006;SDS011;16104;48.642;9.008;2022-07-23T07:09:13;6.15;;;5.38;;
29006;SDS011;16104;48.642;9.008;2022-07-23T07:14:08;5.55;;;5.10;;
29006;SDS011;16104;48.642;9.008;2022-07-23T07:19:04;5.45;;;4.80;;
29006;SDS011;16104;48.642;9.008;2022-07-23T07:23:59;5.88;;;4.97;;
29006;SDS011;16104;48.642;9.008;2022-07-23T07:28:55;6.18;;;4.68;;
29006;SDS011;16104;48.642;9.008;2022-07-23T07:33:51;6.18;;;4.68;;
29006;SDS011;16104;48.642;9.008;2022-07-23T07:38:47;7.22;;;4.88;;
29006;SDS011;16104;48.642;9.008;2022-07-23T07:43:42;4.85;;;4.38;;
29006;SDS011;16104;48.642;9.008;2022-07-23T07:48:38;5.45;;;4.90;;
29006;SDS011;16104;48.642;9.008;2022-07-23T07:53:33;5.22;;;4.72;;
29006;SDS011;16104;48.642;9.008;2022-07-23T07:58:29;5.40;;;4.90;;
29006;SDS011;16104;48.642;9.008;2022-07-23T08:03:25;6.75;;;5.07;;
29006;SDS011;16104;48.642;9.008;2022-07-23T08:08:20;4.97;;;4.47;;
29006;SDS011;16104;48.642;9.008;2022-07-23T08:13:16;5.65;;;4.78;;
29006;SDS011;16104;48.642;9.008;2022-07-23T08:18:12;6.00;;;5.10;;
29006;SDS011;16104;48.642;9.008;2022-07-23T08:23:08;5.22;;;4.72;;
29006;SDS011;16104;48.642;9.008;2022-07-23T08:28:05;7.00;;;4.72;;
29006;SDS011;16104;48.642;9.008;2022-07-23T08:33:03;4.70;;;4.30;;
29006;SDS011;16104;48.642;9.008;2022-07-23T08:38:00;6.15;;;4.70;;
29006;SDS011;16104;48.642;9.008;2022-07-23T08:42:57;6.88;;;5.03;;
29006;SDS011;16104;48.642;9.008;2022-07-23T08:47:56;4.57;;;4.20;;
29006;SDS011;16104;48.642;9.008;2022-07-23T08:52:55;4.95;;;4.55;;
29006;SDS011;16104;48.642;9.008;2022-07-23T08:57:52;5.30;;;4.80;;
29006;SDS011;16104;48.642;9.008;2022-07-23T09:02:48;5.70;;;5.05;;
29006;SDS011;16104;48.642;9.008;2022-07-23T09:13:01;5.93;;;5.32;;
29006;SDS011;16104;48.642;9.008;2022-07-23T09:17:56;6.28;;;4.90;;
29006;SDS011;16104;48.642;9.008;2022-07-23T09:22:52;6.60;;;5.20;;
29006;SDS011;16104;48.642;9.008;2022-07-23T09:27:54;8.82;;;5.07;;
29006;SDS011;16104;48.642;9.008;2022-07-23T09:38:10;6.10;;;5.22;;
29006;SDS011;16104;48.642;9.008;2022-07-23T09:43:06;8.50;;;5.88;;
29006;SDS011;16104;48.642;9.008;2022-07-23T09:48:11;5.93;;;5.10;;
29006;SDS011;16104;48.642;9.008;2022-07-23T09:53:08;5.95;;;5.35;;
29006;SDS011;16104;48.642;9.008;2022-07-23T09:58:05;6.65;;;5.35;;
29006;SDS011;16104;48.642;9.008;2022-07-23T10:03:04;6.30;;;5.80;;
29006;SDS011;16104;48.642;9.008;2022-07-23T10:08:01;6.35;;;5.82;;
29006;SDS011;16104;48.642;9.008;2022-07-23T10:12:57;6.60;;;5.93;;
29006;SDS011;16104;48.642;9.008;2022-07-23T10:17:56;5.68;;;5.22;;
29006;SDS011;16104;48.642;9.008;2022-07-23T10:38:26;6.57;;;5.80;;
29006;SDS011;16104;48.642;9.008;2022-07-23T10:43:25;5.82;;;5.22;;
29006;SDS011;16104;48.642;9.008;2022-07-23T10:48:22;6.20;;;5.70;;
29006;SDS011;16104;48.642;9.008;2022-07-23T10:53:21;5.68;;;5.18;;
29006;SDS011;16104;48.642;9.008;2022-07-23T10:58:21;5.38;;;4.88;;
29006;SDS011;16104;48.642;9.008;2022-07-23T11:03:28;4.78;;;4.20;;
29006;SDS011;16104;48.642;9.008;2022-07-23T11:08:27;4.70;;;4.30;;
29006;SDS011;16104;48.642;9.008;2022-07-23T11:13:26;4.63;;;4.22;;
29006;SDS011;16104;48.642;9.008;2022-07-23T11:23:58;4.65;;;4.07;;
29006;SDS011;16104;48.642;9.008;2022-07-23T11:34:32;4.70;;;4.30;;
29006;SDS011;16104;48.642;9.008;2022-07-23T11:39:35;5.47;;;4.90;;
29006;SDS011;16104;48.642;9.008;2022-07-23T11:44:33;5.03;;;4.63;;
29006;SDS011;16104;48.642;9.008;2022-07-23T11:49:32;4.85;;;4.45;;
29006;SDS011;16104;48.642;9.008;2022-07-23T11:54:28;4.88;;;4.00;;
29006;SDS011;16104;48.642;9.008;2022-07-23T11:59:24;4.70;;;4.30;;
29006;SDS011;16104;48.642;9.008;2022-07-23T12:04:24;4.93;;;4.43;;
29006;SDS011;16104;48.642;9.008;2022-07-23T12:09:32;5.95;;;4.50;;
29006;SDS011;16104;48.642;9.008;2022-07-23T12:14:27;4.95;;;4.47;;
29006;SDS011;16104;48.642;9.008;2022-07-23T12:19:23;4.65;;;4.28;;
29006;SDS011;16104;48.642;9.008;2022-07-23T12:24:19;4.70;;;4.28;;
29006;SDS011;16104;48.642;9.008;2022-07-23T12:29:15;5.75;;;4.75;;
29006;SDS011;16104;48.642;9.008;2022-07-23T12:34:14;4.95;;;4.55;;
29006;SDS011;16104;48.642;9.008;2022-07-23T12:39:10;4.70;;;4.30;;
29006;SDS011;16104;48.642;9.008;2022-07-23T12:44:14;4.57;;;4.18;;
29006;SDS011;16104;48.642;9.008;2022-07-23T12:49:09;7.43;;;5.90;;
29006;SDS011;16104;48.642;9.008;2022-07-23T12:54:08;5.82;;;4.90;;
29006;SDS011;16104;48.642;9.008;2022-07-23T12:59:05;6.57;;;5.22;;
29006;SDS011;16104;48.642;9.008;2022-07-23T13:04:07;5.60;;;5.10;;
29006;SDS011;16104;48.642;9.008;2022-07-23T13:09:06;5.47;;;4.97;;
29006;SDS011;16104;48.642;9.008;2022-07-23T13:14:03;5.43;;;4.78;;
29006;SDS011;16104;48.642;9.008;2022-07-23T13:18:59;5.55;;;5.05;;
29006;SDS011;16104;48.642;9.008;2022-07-23T13:23:56;5.50;;;4.70;;
29006;SDS011;16104;48.642;9.008;2022-07-23T13:28:51;5.53;;;5.03;;
29006;SDS011;16104;48.642;9.008;2022-07-23T13:33:47;8.52;;;5.10;;
29006;SDS011;16104;48.642;9.008;2022-07-23T13:38:43;6.22;;;4.78;;
29006;SDS011;16104;48.642;9.008;2022-07-23T13:43:38;4.72;;;4.18;;
29006;SDS011;16104;48.642;9.008;2022-07-23T13:48:33;4.88;;;4.47;;
29006;SDS011;16104;48.642;9.008;2022-07-23T13:53:29;5.18;;;4.68;;
29006;SDS011;16104;48.642;9.008;2022-07-23T13:58:25;6.05;;;5.07;;
29006;SDS011;16104;48.642;9.008;2022-07-23T14:03:21;6.75;;;5.30;;
29006;SDS011;16104;48.642;9.008;2022-07-23T14:08:18;5.65;;;5.00;;
29006;SDS011;16104;48.642;9.008;2022-07-23T14:13:14;5.57;;;5.07;;
29006;SDS011;16104;48.642;9.008;2022-07-23T14:18:09;5.25;;;4.78;;
29006;SDS011;16104;48.642;9.008;2022-07-23T14:23:05;7.57;;;4.85;;
29006;SDS011;16104;48.642;9.008;2022-07-23T14:28:00;5.45;;;4.95;;
29006;SDS011;16104;48.642;9.008;2022-07-23T14:32:56;5.35;;;4.85;;
29006;SDS011;16104;48.642;9.008;2022-07-23T14:37:52;5.72;;;5.13;;
29006;SDS011;16104;48.642;9.008;2022-07-23T14:42:47;5.68;;;5.03;;
29006;SDS011;16104;48.642;9.008;2022-07-23T14:47:43;4.90;;;4.53;;
29006;SDS011;16104;48.642;9.008;2022-07-23T14:52:38;4.70;;;4.30;;
29006;SDS011;16104;48.642;9.008;2022-07-23T14:57:34;5.70;;;5.10;;
29006;SDS011;16104;48.642;9.008;2022-07-23T15:02:29;4.78;;;4.43;;
29006;SDS011;16104;48.642;9.008;2022-07-23T15:07:25;5.35;;;4.85;;
29006;SDS011;16104;48.642;9.008;2022-07-23T15:12:20;4.65;;;4.30;;
29006;SDS011;16104;48.642;9.008;2022-07-23T15:17:16;6.32;;;4.65;;
29006;SDS011;16104;48.642;9.008;2022-07-23T15:22:11;5.10;;;4.70;;
29006;SDS011;16104;48.642;9.008;2022-07-23T15:27:07;5.30;;;4.78;;
29006;SDS011;16104;48.642;9.008;2022-07-23T15:32:02;5.25;;;4.65;;
29006;SDS011;16104;48.642;9.008;2022-07-23T15:37:02;5.28;;;4.88;;
29006;SDS011;16104;48.642;9.008;2022-07-23T15:42:00;5.40;;;5.00;;
29006;SDS011;16104;48.642;9.008;2022-07-23T15:46:56;5.45;;;4.88;;
29006;SDS011;16104;48.642;9.008;2022-07-23T15:51:52;6.07;;;4.70;;
29006;SDS011;16104;48.642;9.008;2022-07-23T15:56:49;5.80;;;5.20;;
29006;SDS011;16104;48.642;9.008;2022-07-23T16:01:44;5.35;;;4.85;;
29006;SDS011;16104;48.642;9.008;2022-07-23T16:06:40;4.75;;;4.35;;
29006;SDS011;16104;48.642;9.008;2022-07-23T16:11:36;5.53;;;5.03;;
29006;SDS011;16104;48.642;9.008;2022-07-23T16:16:31;5.85;;;4.97;;
29006;SDS011;16104;48.642;9.008;2022-07-23T16:21:27;4.90;;;4.50;;
29006;SDS011;16104;48.642;9.008;2022-07-23T16:26:23;5.47;;;4.97;;
29006;SDS011;16104;48.642;9.008;2022-07-23T16:31:18;5.35;;;4.85;;
29006;SDS011;16104;48.642;9.008;2022-07-23T16:36:14;5.40;;;4.90;;
29006;SDS011;16104;48.642;9.008;2022-07-23T16:41:09;5.22;;;4.70;;
29006;SDS011;16104;48.642;9.008;2022-07-23T16:46:05;5.32;;;4.82;;
29006;SDS011;16104;48.642;9.008;2022-07-23T16:51:02;6.22;;;5.20;;
29006;SDS011;16104;48.642;9.008;2022-07-23T16:55:57;11.23;;;7.05;;
29006;SDS011;16104;48.642;9.008;2022-07-23T17:00:53;5.80;;;5.30;;
29006;SDS011;16104;48.642;9.008;2022-07-23T17:05:48;5.80;;;5.30;;
29006;SDS011;16104;48.642;9.008;2022-07-23T17:10:45;6.03;;;5.38;;
29006;SDS011;16104;48.642;9.008;2022-07-23T17:15:40;7.15;;;5.70;;
29006;SDS011;16104;48.642;9.008;2022-07-23T17:20:36;6.32;;;5.05;;
29006;SDS011;16104;48.642;9.008;2022-07-23T17:25:31;7.32;;;5.80;;
29006;SDS011;16104;48.642;9.008;2022-07-23T17:30:27;5.72;;;5.22;;
29006;SDS011;16104;48.642;9.008;2022-07-23T17:35:23;6.13;;;5.30;;
29006;SDS011;16104;48.642;9.008;2022-07-23T17:40:18;7.28;;;5.50;;
29006;SDS011;16104;48.642;9.008;2022-07-23T17:45:14;6.32;;;5.63;;
29006;SDS011;16104;48.642;9.008;2022-07-23T17:50:10;5.97;;;5.35;;
29006;SDS011;16104;48.642;9.008;2022-07-23T17:55:05;8.45;;;5.47;;
29006;SDS011;16104;48.642;9.008;2022-07-23T18:00:01;8.55;;;5.53;;
29006;SDS011;16104;48.642;9.008;2022-07-23T18:09:56;6.63;;;5.72;;
29006;SDS011;16104;48.642;9.008;2022-07-23T18:14:51;8.52;;;5.85;;
29006;SDS011;16104;48.642;9.008;2022-07-23T18:19:47;6.75;;;6.03;;
29006;SDS011;16104;48.642;9.008;2022-07-23T18:24:43;5.85;;;5.32;;
29006;SDS011;16104;48.642;9.008;2022-07-23T18:29:38;7.93;;;5.35;;
29006;SDS011;16104;48.642;9.008;2022-07-23T18:34:34;6.90;;;5.55;;
29006;SDS011;16104;48.642;9.008;2022-07-23T18:39:29;6.50;;;5.78;;
29006;SDS011;16104;48.642;9.008;2022-07-23T18:44:29;6.10;;;5.50;;
29006;SDS011;16104;48.642;9.008;2022-07-23T18:49:25;6.13;;;5.55;;
29006;SDS011;16104;48.642;9.008;2022-07-23T18:54:21;7.07;;;6.30;;
29006;SDS011;16104;48.642;9.008;2022-07-23T18:59:17;9.18;;;8.27;;
29006;SDS011;16104;48.642;9.008;2022-07-23T19:04:13;7.35;;;6.65;;
29006;SDS011;16104;48.642;9.008;2022-07-23T19:09:08;7.32;;;6.25;;
29006;SDS011;16104;48.642;9.008;2022-07-23T19:14:04;8.48;;;7.57;;
29006;SDS011;16104;48.642;9.008;2022-07-23T19:19:00;11.52;;;8.18;;
29006;SDS011;16104;48.642;9.008;2022-07-23T19:23:55;9.00;;;8.10;;
29006;SDS011;16104;48.642;9.008;2022-07-23T19:28:51;7.32;;;6.63;;
29006;SDS011;16104;48.642;9.008;2022-07-23T19:33:49;7.70;;;6.40;;
29006;SDS011;16104;48.642;9.008;2022-07-23T19:38:45;8.70;;;7.65;;
29006;SDS011;16104;48.642;9.008;2022-07-23T19:43:40;8.65;;;7.55;;
29006;SDS011;16104;48.642;9.008;2022-07-23T19:48:36;6.55;;;5.95;;
29006;SDS011;16104;48.642;9.008;2022-07-23T19:53:31;7.65;;;6.00;;
29006;SDS011;16104;48.642;9.008;2022-07-23T19:58:27;6.95;;;6.28;;
29006;SDS011;16104;48.642;9.008;2022-07-23T20:03:22;11.30;;;6.30;;
29006;SDS011;16104;48.642;9.008;2022-07-23T20:08:18;22.73;;;7.78;;
29006;SDS011;16104;48.642;9.008;2022-07-23T20:13:13;11.18;;;7.45;;
29006;SDS011;16104;48.642;9.008;2022-07-23T20:18:09;9.93;;;7.40;;
29006;SDS011;16104;48.642;9.008;2022-07-23T20:23:04;12.30;;;8.23;;
29006;SDS011;16104;48.642;9.008;2022-07-23T20:28:00;9.73;;;7.50;;
29006;SDS011;16104;48.642;9.008;2022-07-23T20:32:56;8.88;;;7.95;;
29006;SDS011;16104;48.642;9.008;2022-07-23T20:37:52;9.45;;;7.35;;
29006;SDS011;16104;48.642;9.008;2022-07-23T20:42:47;7.40;;;6.70;;
29006;SDS011;16104;48.642;9.008;2022-07-23T20:47:44;7.22;;;6.53;;
29006;SDS011;16104;48.642;9.008;2022-07-23T20:52:39;7.35;;;6.65;;
29006;SDS011;16104;48.642;9.008;2022-07-23T20:57:34;8.23;;;7.43;;
29006;SDS011;16104;48.642;9.008;2022-07-23T21:02:30;7.22;;;6.53;;
29006;SDS011;16104;48.642;9.008;2022-07-23T21:07:25;9.32;;;7.10;;
29006;SDS011;16104;48.642;9.008;2022-07-23T21:12:21;8.88;;;7.28;;
29006;SDS011;16104;48.642;9.008;2022-07-23T21:17:18;8.23;;;7.40;;
29006;SDS011;16104;48.642;9.008;2022-07-23T21:22:14;8.45;;;7.47;;
29006;SDS011;16104;48.642;9.008;2022-07-23T21:27:09;7.85;;;7.05;;
29006;SDS011;16104;48.642;9.008;2022-07-23T21:32:07;10.18;;;7.65;;
29006;SDS011;16104;48.642;9.008;2022-07-23T21:37:03;7.78;;;6.97;;
29006;SDS011;16104;48.642;9.008;2022-07-23T21:41:58;8.00;;;6.93;;
29006;SDS011;16104;48.642;9.008;2022-07-23T21:46:54;9.95;;;6.72;;
29006;SDS011;16104;48.642;9.008;2022-07-23T21:51:49;8.15;;;7.32;;
29006;SDS011;16104;48.642;9.008;2022-07-23T21:56:45;8.65;;;7.60;;
29006;SDS011;16104;48.642;9.008;2022-07-23T22:01:41;8.93;;;7.30;;
29006;SDS011;16104;48.642;9.008;2022-07-23T22:06:37;8.25;;;7.00;;
29006;SDS011;16104;48.642;9.008;2022-07-23T22:11:33;8.20;;;7.07;;
29006;SDS011;16104;48.642;9.008;2022-07-23T22:16:28;8.30;;;7.50;;
29006;SDS011;16104;48.642;9.008;2022-07-23T22:21:25;8.50;;;7.07;;
29006;SDS011;16104;48.642;9.008;2022-07-23T22:26:21;12.98;;;7.38;;
29006;SDS011;16104;48.642;9.008;2022-07-23T22:31:16;8.63;;;7.03;;
29006;SDS011;16104;48.642;9.008;2022-07-23T22:36:12;11.13;;;8.57;;
29006;SDS011;16104;48.642;9.008;2022-07-23T22:41:08;9.52;;;7.60;;
29006;SDS011;16104;48.642;9.008;2022-07-23T22:46:03;9.38;;;8.35;;
29006;SDS011;16104;48.642;9.008;2022-07-23T22:50:59;9.73;;;8.48;;
29006;SDS011;16104;48.642;9.008;2022-07-23T22:55:54;8.90;;;7.72;;
29006;SDS011;16104;48.642;9.008;2022-07-23T23:00:50;9.52;;;8.00;;
29006;SDS011;16104;48.642;9.008;2022-07-23T23:05:45;11.05;;;7.88;;
29006;SDS011;16104;48.642;9.008;2022-07-23T23:10:41;8.45;;;7.65;;
29006;SDS011;16104;48.642;9.008;2022-07-23T23:15:36;10.68;;;8.32;;
29006;SDS011;16104;48.642;9.008;2022-07-23T23:20:32;8.93;;;7.78;;
29006;SDS011;16104;48.642;9.008;2022-07-23T23:25:27;10.50;;;8.05;;
29006;SDS011;16104;48.642;9.008;2022-07-23T23:30:23;7.82;;;6.97;;
29006;SDS011;16104;48.642;9.008;2022-07-23T23:35:19;10.40;;;7.35;;
29006;SDS011;16104;48.642;9.008;2022-07-23T23:40:14;15.32;;;8.30;;
29006;SDS011;16104;48.642;9.008;2022-07-23T23:45:10;9.82;;;8.07;;
29006;SDS011;16104;48.642;9.008;2022-07-23T23:50:06;8.80;;;8.00;;
29006;SDS011;16104;48.642;9.008;2022-07-23T23:55:02;10.13;;;7.70;;
29006;SDS011;16104;48.642;9.008;2022-07-23T23:59:58;9.50;;;8.27;;
